sensor_id;sensor_type;location;lat;lon;timestamp;pressure;altitude;pressure_sealevel;temperature;humidity
82887;BME280;72660;51.258;-2.200;2024-02-21T00:01:29;101185.97;;;11.17;54.04
82887;BME280;72660;51.258;-2.200;2024-02-21T00:03:54;101183.52;;;11.30;54.16
82887;BME280;72660;51.258;-2.200;2024-02-21T00:06:20;101185.76;;;11.15;54.13
82887;BME280;72660;51.258;-2.200;2024-02-21T00:08:45;101183.10;;;11.02;55.11
82887;BME280;72660;51.258;-2.200;2024-02-21T00:11:10;101182.47;;;10.17;56.66
82887;BME280;72660;51.258;-2.200;2024-02-21T00:13:35;101182.89;;;10.51;56.43
82887;BME280;72660;51.258;-2.200;2024-02-21T00:16:01;101175.03;;;10.70;55.86
82887;BME280;72660;51.258;-2.200;2024-02-21T00:18:26;101165.20;;;10.41;56.22
82887;BME280;72660;51.258;-2.200;2024-02-21T00:20:51;101159.58;;;10.43;56.31
82887;BME280;72660;51.258;-2.200;2024-02-21T00:23:17;101159.87;;;10.55;56.28
82887;BME280;72660;51.258;-2.200;2024-02-21T00:25:42;101151.77;;;10.66;56.03
82887;BME280;72660;51.258;-2.200;2024-02-21T00:28:07;101148.36;;;10.54;55.98
82887;BME280;72660;51.258;-2.200;2024-02-21T00:30:33;101143.69;;;11.06;55.18
82887;BME280;72660;51.258;-2.200;2024-02-21T00:32:58;101138.76;;;10.63;55.55
82887;BME280;72660;51.258;-2.200;2024-02-21T00:35:24;101135.76;;;10.76;55.67
82887;BME280;72660;51.258;-2.200;2024-02-21T00:37:49;101132.48;;;10.15;57.00
82887;BME280;72660;51.258;-2.200;2024-02-21T00:40:14;101125.81;;;10.77;55.95
82887;BME280;72660;51.258;-2.200;2024-02-21T00:42:40;101127.40;;;10.38;56.72
82887;BME280;72660;51.258;-2.200;2024-02-21T00:45:06;101120.65;;;10.19;56.85
82887;BME280;72660;51.258;-2.200;2024-02-21T00:47:30;101109.66;;;10.73;55.62
82887;BME280;72660;51.258;-2.200;2024-02-21T00:49:56;101102.17;;;10.50;55.52
82887;BME280;72660;51.258;-2.200;2024-02-21T00:52:21;101095.60;;;10.30;56.72
82887;BME280;72660;51.258;-2.200;2024-02-21T00:54:47;101094.90;;;10.31;57.28
82887;BME280;72660;51.258;-2.200;2024-02-21T00:57:12;101085.59;;;9.74;58.05
82887;BME280;72660;51.258;-2.200;2024-02-21T00:59:38;101076.34;;;10.39;57.29
82887;BME280;72660;51.258;-2.200;2024-02-21T01:02:03;101072.76;;;10.17;58.14
82887;BME280;72660;51.258;-2.200;2024-02-21T01:04:28;101060.16;;;10.22;57.75
82887;BME280;72660;51.258;-2.200;2024-02-21T01:06:53;101056.82;;;10.52;56.60
82887;BME280;72660;51.258;-2.200;2024-02-21T01:09:19;101050.05;;;10.49;56.49
82887;BME280;72660;51.258;-2.200;2024-02-21T01:11:44;101046.50;;;10.72;56.22
82887;BME280;72660;51.258;-2.200;2024-02-21T01:14:10;101046.15;;;10.80;55.98
82887;BME280;72660;51.258;-2.200;2024-02-21T01:16:35;101043.62;;;10.09;56.96
82887;BME280;72660;51.258;-2.200;2024-02-21T01:19:00;101035.37;;;10.54;56.27
82887;BME280;72660;51.258;-2.200;2024-02-21T01:21:26;101026.59;;;10.44;56.05
82887;BME280;72660;51.258;-2.200;2024-02-21T01:23:51;101015.05;;;11.03;55.29
82887;BME280;72660;51.258;-2.200;2024-02-21T01:26:16;101010.98;;;10.08;56.10
82887;BME280;72660;51.258;-2.200;2024-02-21T01:28:42;101009.18;;;10.17;56.65
82887;BME280;72660;51.258;-2.200;2024-02-21T01:31:07;101002.86;;;10.18;56.21
82887;BME280;72660;51.258;-2.200;2024-02-21T01:33:32;101001.49;;;10.20;56.58
82887;BME280;72660;51.258;-2.200;2024-02-21T01:35:58;100994.36;;;10.63;56.69
82887;BME280;72660;51.258;-2.200;2024-02-21T01:38:22;100981.86;;;9.99;56.96
82887;BME280;72660;51.258;-2.200;2024-02-21T01:40:48;100977.73;;;9.83;57.85
82887;BME280;72660;51.258;-2.200;2024-02-21T01:43:17;100975.14;;;10.16;56.80
82887;BME280;72660;51.258;-2.200;2024-02-21T01:45:39;100969.99;;;10.41;56.27
82887;BME280;72660;51.258;-2.200;2024-02-21T01:48:05;100961.10;;;10.23;56.34
82887;BME280;72660;51.258;-2.200;2024-02-21T01:50:29;100953.49;;;10.28;57.06
82887;BME280;72660;51.258;-2.200;2024-02-21T01:52:54;100951.20;;;10.28;57.15
82887;BME280;72660;51.258;-2.200;2024-02-21T01:55:20;100951.66;;;10.11;56.86
82887;BME280;72660;51.258;-2.200;2024-02-21T01:57:45;100945.30;;;10.07;57.03
82887;BME280;72660;51.258;-2.200;2024-02-21T02:00:12;100942.24;;;10.37;56.89
82887;BME280;72660;51.258;-2.200;2024-02-21T02:02:36;100936.80;;;9.94;57.31
82887;BME280;72660;51.258;-2.200;2024-02-21T02:05:01;100930.75;;;10.22;57.21
82887;BME280;72660;51.258;-2.200;2024-02-21T02:07:26;100925.65;;;10.25;56.88
82887;BME280;72660;51.258;-2.200;2024-02-21T02:09:52;100918.72;;;10.13;56.53
82887;BME280;72660;51.258;-2.200;2024-02-21T02:12:17;100917.83;;;10.47;56.56
82887;BME280;72660;51.258;-2.200;2024-02-21T02:14:42;100917.50;;;10.18;56.44
82887;BME280;72660;51.258;-2.200;2024-02-21T02:17:07;100917.79;;;10.32;56.37
82887;BME280;72660;51.258;-2.200;2024-02-21T02:19:33;100916.58;;;10.32;56.75
82887;BME280;72660;51.258;-2.200;2024-02-21T02:22:11;100911.68;;;10.34;56.52
82887;BME280;72660;51.258;-2.200;2024-02-21T02:24:24;100914.59;;;10.40;56.02
82887;BME280;72660;51.258;-2.200;2024-02-21T02:26:49;100921.28;;;10.21;56.63
82887;BME280;72660;51.258;-2.200;2024-02-21T02:29:14;100912.29;;;10.15;56.75
82887;BME280;72660;51.258;-2.200;2024-02-21T02:31:40;100901.93;;;10.45;56.63
82887;BME280;72660;51.258;-2.200;2024-02-21T02:34:05;100898.78;;;10.58;56.49
82887;BME280;72660;51.258;-2.200;2024-02-21T02:36:32;100902.16;;;10.07;57.20
82887;BME280;72660;51.258;-2.200;2024-02-21T02:38:55;100898.12;;;9.94;57.17
82887;BME280;72660;51.258;-2.200;2024-02-21T02:41:21;100901.24;;;10.02;57.15
82887;BME280;72660;51.258;-2.200;2024-02-21T02:43:46;100896.82;;;10.60;56.08
82887;BME280;72660;51.258;-2.200;2024-02-21T02:46:12;100876.08;;;10.27;57.06
82887;BME280;72660;51.258;-2.200;2024-02-21T02:48:37;100871.66;;;9.94;57.27
82887;BME280;72660;51.258;-2.200;2024-02-21T02:51:03;100863.70;;;9.90;57.22
82887;BME280;72660;51.258;-2.200;2024-02-21T02:53:28;100866.70;;;9.84;57.65
82887;BME280;72660;51.258;-2.200;2024-02-21T02:55:53;100853.43;;;9.53;59.00
82887;BME280;72660;51.258;-2.200;2024-02-21T02:58:18;100849.32;;;9.97;58.39
82887;BME280;72660;51.258;-2.200;2024-02-21T03:00:44;100846.44;;;9.74;59.11
82887;BME280;72660;51.258;-2.200;2024-02-21T03:03:09;100839.24;;;10.53;57.92
82887;BME280;72660;51.258;-2.200;2024-02-21T03:05:34;100828.83;;;9.54;59.41
82887;BME280;72660;51.258;-2.200;2024-02-21T03:08:00;100822.94;;;10.43;58.06
82887;BME280;72660;51.258;-2.200;2024-02-21T03:10:25;100812.44;;;10.37;57.91
82887;BME280;72660;51.258;-2.200;2024-02-21T03:12:51;100805.67;;;9.46;58.98
82887;BME280;72660;51.258;-2.200;2024-02-21T03:15:16;100800.66;;;9.72;58.68
82887;BME280;72660;51.258;-2.200;2024-02-21T03:17:41;100796.87;;;9.79;58.12
82887;BME280;72660;51.258;-2.200;2024-02-21T03:20:07;100791.27;;;9.73;58.91
82887;BME280;72660;51.258;-2.200;2024-02-21T03:22:32;100780.38;;;9.46;59.00
82887;BME280;72660;51.258;-2.200;2024-02-21T03:24:57;100768.16;;;9.75;58.40
82887;BME280;72660;51.258;-2.200;2024-02-21T03:27:23;100769.19;;;9.78;58.66
82887;BME280;72660;51.258;-2.200;2024-02-21T03:29:48;100760.94;;;9.63;59.12
82887;BME280;72660;51.258;-2.200;2024-02-21T03:32:14;100760.58;;;9.88;59.09
82887;BME280;72660;51.258;-2.200;2024-02-21T03:34:39;100755.57;;;9.75;58.79
82887;BME280;72660;51.258;-2.200;2024-02-21T03:37:04;100749.72;;;10.05;58.24
82887;BME280;72660;51.258;-2.200;2024-02-21T03:39:31;100741.62;;;9.70;58.50
82887;BME280;72660;51.258;-2.200;2024-02-21T03:41:55;100731.93;;;10.16;58.04
82887;BME280;72660;51.258;-2.200;2024-02-21T03:44:20;100723.99;;;9.89;58.89
82887;BME280;72660;51.258;-2.200;2024-02-21T03:46:46;100716.92;;;10.07;58.38
82887;BME280;72660;51.258;-2.200;2024-02-21T03:49:11;100711.83;;;9.58;59.88
82887;BME280;72660;51.258;-2.200;2024-02-21T03:51:36;100714.30;;;10.02;58.96
82887;BME280;72660;51.258;-2.200;2024-02-21T03:54:02;100703.93;;;9.71;59.01
82887;BME280;72660;51.258;-2.200;2024-02-21T03:56:27;100692.21;;;10.42;58.17
82887;BME280;72660;51.258;-2.200;2024-02-21T03:58:53;100686.98;;;9.82;59.36
82887;BME280;72660;51.258;-2.200;2024-02-21T04:01:18;100680.01;;;9.01;60.63
82887;BME280;72660;51.258;-2.200;2024-02-21T04:03:43;100676.80;;;9.30;60.50
82887;BME280;72660;51.258;-2.200;2024-02-21T04:06:08;100664.71;;;9.34;60.47
82887;BME280;72660;51.258;-2.200;2024-02-21T04:08:34;100661.93;;;9.71;59.81
82887;BME280;72660;51.258;-2.200;2024-02-21T04:10:59;100651.89;;;9.08;60.61
82887;BME280;72660;51.258;-2.200;2024-02-21T04:13:24;100648.92;;;9.55;59.56
82887;BME280;72660;51.258;-2.200;2024-02-21T04:15:49;100642.28;;;9.74;59.50
82887;BME280;72660;51.258;-2.200;2024-02-21T04:18:14;100637.16;;;9.76;59.66
82887;BME280;72660;51.258;-2.200;2024-02-21T04:20:40;100633.93;;;10.32;58.45
82887;BME280;72660;51.258;-2.200;2024-02-21T04:23:05;100637.05;;;9.86;59.37
82887;BME280;72660;51.258;-2.200;2024-02-21T04:25:31;100632.91;;;9.75;58.77
82887;BME280;72660;51.258;-2.200;2024-02-21T04:27:56;100626.31;;;10.40;58.09
82887;BME280;72660;51.258;-2.200;2024-02-21T04:30:21;100617.38;;;10.45;57.45
82887;BME280;72660;51.258;-2.200;2024-02-21T04:32:47;100609.07;;;10.09;58.37
82887;BME280;72660;51.258;-2.200;2024-02-21T04:35:12;100607.40;;;10.15;57.91
82887;BME280;72660;51.258;-2.200;2024-02-21T04:37:38;100595.80;;;9.72;59.22
82887;BME280;72660;51.258;-2.200;2024-02-21T04:40:04;100587.40;;;10.22;59.10
82887;BME280;72660;51.258;-2.200;2024-02-21T04:42:29;100571.19;;;9.32;60.39
82887;BME280;72660;51.258;-2.200;2024-02-21T04:44:54;100552.02;;;10.10;59.52
82887;BME280;72660;51.258;-2.200;2024-02-21T04:47:19;100546.83;;;10.00;59.46
82887;BME280;72660;51.258;-2.200;2024-02-21T04:49:44;100537.54;;;9.78;60.21
82887;BME280;72660;51.258;-2.200;2024-02-21T04:52:10;100530.55;;;9.82;60.42
82887;BME280;72660;51.258;-2.200;2024-02-21T04:54:35;100522.81;;;10.10;59.21
82887;BME280;72660;51.258;-2.200;2024-02-21T04:57:00;100512.45;;;10.07;59.13
82887;BME280;72660;51.258;-2.200;2024-02-21T04:59:26;100512.32;;;9.71;60.67
82887;BME280;72660;51.258;-2.200;2024-02-21T05:01:51;100510.99;;;9.80;60.66
82887;BME280;72660;51.258;-2.200;2024-02-21T05:04:17;100509.35;;;9.59;60.83
82887;BME280;72660;51.258;-2.200;2024-02-21T05:06:42;100503.51;;;9.44;60.98
82887;BME280;72660;51.258;-2.200;2024-02-21T05:09:08;100503.90;;;10.02;59.98
82887;BME280;72660;51.258;-2.200;2024-02-21T05:11:33;100496.00;;;9.87;60.43
82887;BME280;72660;51.258;-2.200;2024-02-21T05:13:58;100483.76;;;10.26;59.55
82887;BME280;72660;51.258;-2.200;2024-02-21T05:16:23;100477.02;;;9.81;59.96
82887;BME280;72660;51.258;-2.200;2024-02-21T05:18:49;100477.32;;;9.41;61.51
82887;BME280;72660;51.258;-2.200;2024-02-21T05:21:14;100470.82;;;9.59;60.87
82887;BME280;72660;51.258;-2.200;2024-02-21T05:23:39;100470.37;;;10.01;59.98
82887;BME280;72660;51.258;-2.200;2024-02-21T05:26:05;100458.13;;;10.24;60.12
82887;BME280;72660;51.258;-2.200;2024-02-21T05:28:30;100449.62;;;10.12;60.11
82887;BME280;72660;51.258;-2.200;2024-02-21T05:30:55;100443.95;;;9.86;60.86
82887;BME280;72660;51.258;-2.200;2024-02-21T05:33:21;100434.57;;;10.00;59.93
82887;BME280;72660;51.258;-2.200;2024-02-21T05:35:46;100431.39;;;9.71;61.15
82887;BME280;72660;51.258;-2.200;2024-02-21T05:38:11;100424.33;;;10.50;59.88
82887;BME280;72660;51.258;-2.200;2024-02-21T05:40:37;100414.09;;;9.14;61.61
82887;BME280;72660;51.258;-2.200;2024-02-21T05:43:03;100408.42;;;9.47;61.09
82887;BME280;72660;51.258;-2.200;2024-02-21T05:45:27;100406.90;;;9.90;60.25
82887;BME280;72660;51.258;-2.200;2024-02-21T05:47:53;100401.27;;;9.32;60.74
82887;BME280;72660;51.258;-2.200;2024-02-21T05:50:18;100395.94;;;8.86;61.45
82887;BME280;72660;51.258;-2.200;2024-02-21T05:52:44;100391.34;;;9.51;60.35
82887;BME280;72660;51.258;-2.200;2024-02-21T05:55:09;100381.24;;;9.72;59.77
82887;BME280;72660;51.258;-2.200;2024-02-21T05:57:34;100362.25;;;9.45;60.18
82887;BME280;72660;51.258;-2.200;2024-02-21T06:00:00;100360.34;;;9.40;60.88
82887;BME280;72660;51.258;-2.200;2024-02-21T06:02:25;100360.48;;;9.11;61.19
82887;BME280;72660;51.258;-2.200;2024-02-21T06:04:50;100347.64;;;8.61;62.58
82887;BME280;72660;51.258;-2.200;2024-02-21T06:07:16;100339.44;;;9.42;60.93
82887;BME280;72660;51.258;-2.200;2024-02-21T06:09:42;100334.44;;;8.84;62.60
82887;BME280;72660;51.258;-2.200;2024-02-21T06:12:07;100343.39;;;9.92;60.31
82887;BME280;72660;51.258;-2.200;2024-02-21T06:14:32;100333.78;;;9.53;61.40
82887;BME280;72660;51.258;-2.200;2024-02-21T06:16:58;100323.08;;;9.23;62.14
82887;BME280;72660;51.258;-2.200;2024-02-21T06:19:23;100322.52;;;9.68;61.43
82887;BME280;72660;51.258;-2.200;2024-02-21T06:21:48;100308.08;;;9.47;61.45
82887;BME280;72660;51.258;-2.200;2024-02-21T06:24:13;100298.67;;;9.68;61.41
82887;BME280;72660;51.258;-2.200;2024-02-21T06:26:40;100296.49;;;8.62;63.60
82887;BME280;72660;51.258;-2.200;2024-02-21T06:29:04;100283.67;;;8.41;64.26
82887;BME280;72660;51.258;-2.200;2024-02-21T06:31:30;100284.76;;;8.50;65.14
82887;BME280;72660;51.258;-2.200;2024-02-21T06:33:55;100284.38;;;9.00;63.75
82887;BME280;72660;51.258;-2.200;2024-02-21T06:36:20;100284.51;;;9.05;63.27
82887;BME280;72660;51.258;-2.200;2024-02-21T06:38:46;100268.82;;;9.02;63.17
82887;BME280;72660;51.258;-2.200;2024-02-21T06:41:15;100260.34;;;9.36;62.68
82887;BME280;72660;51.258;-2.200;2024-02-21T06:43:36;100262.43;;;9.02;63.19
82887;BME280;72660;51.258;-2.200;2024-02-21T06:46:02;100257.18;;;9.39;62.48
82887;BME280;72660;51.258;-2.200;2024-02-21T06:48:27;100251.04;;;9.56;63.35
82887;BME280;72660;51.258;-2.200;2024-02-21T06:50:52;100234.35;;;8.62;64.26
82887;BME280;72660;51.258;-2.200;2024-02-21T06:53:18;100225.57;;;9.56;63.02
82887;BME280;72660;51.258;-2.200;2024-02-21T06:55:43;100224.04;;;9.17;63.32
82887;BME280;72660;51.258;-2.200;2024-02-21T06:58:08;100220.74;;;9.01;64.33
82887;BME280;72660;51.258;-2.200;2024-02-21T07:00:34;100205.72;;;9.08;63.81
82887;BME280;72660;51.258;-2.200;2024-02-21T07:02:59;100195.58;;;8.51;65.66
82887;BME280;72660;51.258;-2.200;2024-02-21T07:05:25;100189.36;;;8.65;64.90
82887;BME280;72660;51.258;-2.200;2024-02-21T07:07:50;100198.42;;;8.79;65.24
82887;BME280;72660;51.258;-2.200;2024-02-21T07:10:15;100185.37;;;8.87;65.65
82887;BME280;72660;51.258;-2.200;2024-02-21T07:12:41;100163.76;;;9.13;64.40
82887;BME280;72660;51.258;-2.200;2024-02-21T07:15:06;100172.23;;;8.46;65.39
82887;BME280;72660;51.258;-2.200;2024-02-21T07:17:32;100165.43;;;8.98;65.77
82887;BME280;72660;51.258;-2.200;2024-02-21T07:19:57;100153.06;;;8.60;65.70
82887;BME280;72660;51.258;-2.200;2024-02-21T07:22:22;100152.63;;;8.64;66.42
82887;BME280;72660;51.258;-2.200;2024-02-21T07:24:48;100143.20;;;8.60;66.15
82887;BME280;72660;51.258;-2.200;2024-02-21T07:27:14;100137.03;;;8.18;67.53
82887;BME280;72660;51.258;-2.200;2024-02-21T07:29:38;100126.44;;;8.40;67.22
82887;BME280;72660;51.258;-2.200;2024-02-21T07:32:04;100132.40;;;8.46;67.08
82887;BME280;72660;51.258;-2.200;2024-02-21T07:34:29;100131.13;;;8.96;65.96
82887;BME280;72660;51.258;-2.200;2024-02-21T07:36:55;100117.27;;;9.14;65.27
82887;BME280;72660;51.258;-2.200;2024-02-21T07:39:20;100109.60;;;8.33;66.77
82887;BME280;72660;51.258;-2.200;2024-02-21T07:41:45;100105.62;;;8.83;64.94
82887;BME280;72660;51.258;-2.200;2024-02-21T07:44:10;100104.29;;;8.83;65.56
82887;BME280;72660;51.258;-2.200;2024-02-21T07:46:36;100092.45;;;8.64;65.41
82887;BME280;72660;51.258;-2.200;2024-02-21T07:49:01;100095.89;;;8.65;65.16
82887;BME280;72660;51.258;-2.200;2024-02-21T07:51:28;100086.96;;;8.19;66.23
82887;BME280;72660;51.258;-2.200;2024-02-21T07:53:52;100076.48;;;8.97;63.96
82887;BME280;72660;51.258;-2.200;2024-02-21T07:56:17;100077.50;;;8.72;64.87
82887;BME280;72660;51.258;-2.200;2024-02-21T07:58:42;100066.46;;;8.45;66.30
82887;BME280;72660;51.258;-2.200;2024-02-21T08:01:08;100062.56;;;9.12;64.71
82887;BME280;72660;51.258;-2.200;2024-02-21T08:03:33;100061.57;;;8.74;63.98
82887;BME280;72660;51.258;-2.200;2024-02-21T08:05:58;100065.91;;;8.69;64.50
82887;BME280;72660;51.258;-2.200;2024-02-21T08:08:23;100062.98;;;9.09;63.42
82887;BME280;72660;51.258;-2.200;2024-02-21T08:10:49;100062.22;;;9.21;63.89
82887;BME280;72660;51.258;-2.200;2024-02-21T08:13:14;100059.02;;;9.24;63.12
82887;BME280;72660;51.258;-2.200;2024-02-21T08:15:40;100050.05;;;8.79;63.98
82887;BME280;72660;51.258;-2.200;2024-02-21T08:18:05;100041.44;;;9.57;63.73
82887;BME280;72660;51.258;-2.200;2024-02-21T08:20:30;100029.09;;;9.10;63.61
82887;BME280;72660;51.258;-2.200;2024-02-21T08:22:55;100020.74;;;9.29;62.81
82887;BME280;72660;51.258;-2.200;2024-02-21T08:25:21;100028.91;;;9.05;64.15
82887;BME280;72660;51.258;-2.200;2024-02-21T08:27:46;100023.97;;;8.39;65.49
82887;BME280;72660;51.258;-2.200;2024-02-21T08:30:12;100019.33;;;8.51;65.63
82887;BME280;72660;51.258;-2.200;2024-02-21T08:32:37;100009.19;;;9.09;64.73
82887;BME280;72660;51.258;-2.200;2024-02-21T08:35:02;99996.80;;;8.61;64.67
82887;BME280;72660;51.258;-2.200;2024-02-21T08:37:27;99975.22;;;8.54;64.77
82887;BME280;72660;51.258;-2.200;2024-02-21T08:39:53;99983.97;;;9.08;65.12
82887;BME280;72660;51.258;-2.200;2024-02-21T08:42:18;99982.61;;;8.89;64.63
82887;BME280;72660;51.258;-2.200;2024-02-21T08:44:44;99978.44;;;9.25;63.67
82887;BME280;72660;51.258;-2.200;2024-02-21T08:47:09;99966.30;;;8.76;64.12
82887;BME280;72660;51.258;-2.200;2024-02-21T08:49:34;99952.22;;;8.17;65.91
82887;BME280;72660;51.258;-2.200;2024-02-21T08:52:00;99950.37;;;8.96;64.63
82887;BME280;72660;51.258;-2.200;2024-02-21T08:54:25;99947.43;;;8.93;64.86
82887;BME280;72660;51.258;-2.200;2024-02-21T08:56:50;99923.56;;;8.98;63.95
82887;BME280;72660;51.258;-2.200;2024-02-21T08:59:16;99930.49;;;9.15;64.56
82887;BME280;72660;51.258;-2.200;2024-02-21T09:01:42;99918.55;;;9.16;63.59
82887;BME280;72660;51.258;-2.200;2024-02-21T09:04:06;99923.43;;;8.84;65.02
82887;BME280;72660;51.258;-2.200;2024-02-21T09:06:32;99920.18;;;8.70;65.49
82887;BME280;72660;51.258;-2.200;2024-02-21T09:08:57;99914.79;;;8.23;66.26
82887;BME280;72660;51.258;-2.200;2024-02-21T09:11:22;99909.83;;;9.15;65.42
82887;BME280;72660;51.258;-2.200;2024-02-21T09:13:48;99889.65;;;8.33;65.78
82887;BME280;72660;51.258;-2.200;2024-02-21T09:16:13;99885.73;;;8.65;66.30
82887;BME280;72660;51.258;-2.200;2024-02-21T09:18:39;99886.99;;;8.43;66.70
82887;BME280;72660;51.258;-2.200;2024-02-21T09:21:04;99882.47;;;9.49;64.05
82887;BME280;72660;51.258;-2.200;2024-02-21T09:23:29;99869.59;;;9.70;62.39
82887;BME280;72660;51.258;-2.200;2024-02-21T09:25:54;99855.36;;;9.44;63.00
82887;BME280;72660;51.258;-2.200;2024-02-21T09:28:20;99847.72;;;9.23;64.14
82887;BME280;72660;51.258;-2.200;2024-02-21T09:30:45;99845.56;;;9.11;64.44
82887;BME280;72660;51.258;-2.200;2024-02-21T09:33:11;99848.40;;;9.53;63.70
82887;BME280;72660;51.258;-2.200;2024-02-21T09:35:36;99838.89;;;8.97;64.77
82887;BME280;72660;51.258;-2.200;2024-02-21T09:38:02;99844.32;;;9.48;63.66
82887;BME280;72660;51.258;-2.200;2024-02-21T09:40:27;99829.13;;;9.29;64.42
82887;BME280;72660;51.258;-2.200;2024-02-21T09:43:00;99826.40;;;9.20;63.85
82887;BME280;72660;51.258;-2.200;2024-02-21T09:45:21;99826.71;;;9.60;63.55
82887;BME280;72660;51.258;-2.200;2024-02-21T09:47:50;99821.89;;;9.58;63.67
82887;BME280;72660;51.258;-2.200;2024-02-21T09:50:08;99809.30;;;9.08;65.97
82887;BME280;72660;51.258;-2.200;2024-02-21T09:52:34;99801.70;;;9.63;63.92
82887;BME280;72660;51.258;-2.200;2024-02-21T09:54:59;99790.40;;;8.99;65.26
82887;BME280;72660;51.258;-2.200;2024-02-21T09:57:24;99784.36;;;9.44;64.16
82887;BME280;72660;51.258;-2.200;2024-02-21T09:59:50;99781.13;;;9.69;63.79
82887;BME280;72660;51.258;-2.200;2024-02-21T10:02:15;99774.02;;;9.63;63.95
82887;BME280;72660;51.258;-2.200;2024-02-21T10:04:40;99770.17;;;9.69;63.43
82887;BME280;72660;51.258;-2.200;2024-02-21T10:07:05;99766.41;;;9.50;64.04
82887;BME280;72660;51.258;-2.200;2024-02-21T10:09:31;99754.34;;;9.74;64.37
82887;BME280;72660;51.258;-2.200;2024-02-21T10:12:07;99749.08;;;10.03;63.93
82887;BME280;72660;51.258;-2.200;2024-02-21T10:14:21;99750.58;;;9.42;65.51
82887;BME280;72660;51.258;-2.200;2024-02-21T10:16:48;99740.76;;;9.48;65.40
82887;BME280;72660;51.258;-2.200;2024-02-21T10:19:18;99728.31;;;9.34;65.83
82887;BME280;72660;51.258;-2.200;2024-02-21T10:21:37;99717.43;;;9.34;65.87
82887;BME280;72660;51.258;-2.200;2024-02-21T10:24:03;99717.81;;;9.74;64.23
82887;BME280;72660;51.258;-2.200;2024-02-21T10:26:28;99712.86;;;10.30;63.09
82887;BME280;72660;51.258;-2.200;2024-02-21T10:28:53;99698.47;;;9.29;64.84
82887;BME280;72660;51.258;-2.200;2024-02-21T10:31:23;99696.33;;;9.63;64.30
82887;BME280;72660;51.258;-2.200;2024-02-21T10:33:44;99694.15;;;9.40;64.49
82887;BME280;72660;51.258;-2.200;2024-02-21T10:36:10;99684.64;;;9.55;64.37
82887;BME280;72660;51.258;-2.200;2024-02-21T10:38:36;99683.57;;;9.82;63.65
82887;BME280;72660;51.258;-2.200;2024-02-21T10:41:00;99678.45;;;9.86;62.84
82887;BME280;72660;51.258;-2.200;2024-02-21T10:43:26;99675.93;;;9.96;62.72
82887;BME280;72660;51.258;-2.200;2024-02-21T10:45:52;99671.39;;;10.31;62.01
82887;BME280;72660;51.258;-2.200;2024-02-21T10:48:16;99670.41;;;9.86;62.59
82887;BME280;72660;51.258;-2.200;2024-02-21T10:50:52;99667.95;;;9.74;63.68
82887;BME280;72660;51.258;-2.200;2024-02-21T10:53:19;99664.31;;;9.83;62.65
82887;BME280;72660;51.258;-2.200;2024-02-21T10:55:38;99653.44;;;9.48;63.51
82887;BME280;72660;51.258;-2.200;2024-02-21T10:57:57;99649.13;;;9.39;64.23
82887;BME280;72660;51.258;-2.200;2024-02-21T11:00:23;99637.74;;;10.24;62.38
82887;BME280;72660;51.258;-2.200;2024-02-21T11:02:48;99635.60;;;10.06;62.70
82887;BME280;72660;51.258;-2.200;2024-02-21T11:05:15;99622.93;;;10.28;62.49
82887;BME280;72660;51.258;-2.200;2024-02-21T11:07:39;99621.91;;;9.52;64.12
82887;BME280;72660;51.258;-2.200;2024-02-21T11:10:04;99621.96;;;10.23;63.17
82887;BME280;72660;51.258;-2.200;2024-02-21T11:12:33;99612.68;;;8.85;65.11
82887;BME280;72660;51.258;-2.200;2024-02-21T11:15:05;99609.39;;;9.79;64.56
82887;BME280;72660;51.258;-2.200;2024-02-21T11:17:21;99596.47;;;9.93;64.21
82887;BME280;72660;51.258;-2.200;2024-02-21T11:19:45;99594.79;;;10.21;63.14
82887;BME280;72660;51.258;-2.200;2024-02-21T11:22:15;99586.70;;;10.49;61.57
82887;BME280;72660;51.258;-2.200;2024-02-21T11:24:36;99578.30;;;10.49;62.48
82887;BME280;72660;51.258;-2.200;2024-02-21T11:27:08;99572.62;;;10.63;61.62
82887;BME280;72660;51.258;-2.200;2024-02-21T11:29:27;99566.59;;;10.72;61.59
82887;BME280;72660;51.258;-2.200;2024-02-21T11:31:52;99556.78;;;10.63;61.70
82887;BME280;72660;51.258;-2.200;2024-02-21T11:34:18;99552.08;;;10.47;61.61
82887;BME280;72660;51.258;-2.200;2024-02-21T11:36:49;99545.39;;;10.81;61.42
82887;BME280;72660;51.258;-2.200;2024-02-21T11:39:08;99539.60;;;10.80;61.79
82887;BME280;72660;51.258;-2.200;2024-02-21T11:41:33;99533.54;;;10.73;61.09
82887;BME280;72660;51.258;-2.200;2024-02-21T11:43:59;99525.52;;;10.40;62.64
82887;BME280;72660;51.258;-2.200;2024-02-21T11:46:24;99509.46;;;10.34;62.74
82887;BME280;72660;51.258;-2.200;2024-02-21T11:48:49;99512.25;;;10.43;63.27
82887;BME280;72660;51.258;-2.200;2024-02-21T11:51:21;99498.81;;;10.53;63.26
82887;BME280;72660;51.258;-2.200;2024-02-21T11:53:40;99488.23;;;10.34;63.51
82887;BME280;72660;51.258;-2.200;2024-02-21T11:56:06;99491.55;;;10.55;63.09
82887;BME280;72660;51.258;-2.200;2024-02-21T11:58:31;99488.34;;;11.29;61.78
82887;BME280;72660;51.258;-2.200;2024-02-21T12:00:56;99471.26;;;10.82;61.97
82887;BME280;72660;51.258;-2.200;2024-02-21T12:03:21;99456.90;;;10.84;62.66
82887;BME280;72660;51.258;-2.200;2024-02-21T12:05:46;99459.85;;;10.21;64.25
82887;BME280;72660;51.258;-2.200;2024-02-21T12:08:12;99452.01;;;10.52;63.61
82887;BME280;72660;51.258;-2.200;2024-02-21T12:10:37;99450.87;;;9.99;65.34
82887;BME280;72660;51.258;-2.200;2024-02-21T12:13:06;99438.57;;;10.65;63.72
82887;BME280;72660;51.258;-2.200;2024-02-21T12:15:28;99434.73;;;11.44;62.10
82887;BME280;72660;51.258;-2.200;2024-02-21T12:17:53;99423.10;;;10.67;62.05
82887;BME280;72660;51.258;-2.200;2024-02-21T12:20:18;99406.90;;;10.70;62.49
82887;BME280;72660;51.258;-2.200;2024-02-21T12:22:44;99386.51;;;10.76;63.90
82887;BME280;72660;51.258;-2.200;2024-02-21T12:25:15;99379.61;;;10.34;64.42
82887;BME280;72660;51.258;-2.200;2024-02-21T12:27:34;99376.22;;;10.53;64.14
82887;BME280;72660;51.258;-2.200;2024-02-21T12:29:59;99371.88;;;11.38;62.67
82887;BME280;72660;51.258;-2.200;2024-02-21T12:32:25;99371.83;;;10.39;63.43
82887;BME280;72660;51.258;-2.200;2024-02-21T12:34:50;99377.31;;;11.27;62.81
82887;BME280;72660;51.258;-2.200;2024-02-21T12:37:15;99352.73;;;10.50;64.93
82887;BME280;72660;51.258;-2.200;2024-02-21T12:39:41;99347.99;;;10.94;63.89